Rechercher aéroport 
image banner adimage banner adimage banner ad
image banner ad

0CA2 - Va Greater Los Angeles Health Care Center

Situé à West Los Angeles, United States

ICAO - 0CA2, IATA -

Données fournies par Airmate  

Information générale

Coordonnées: N34°2'59" W118°27'22"
Élévation : 289 feet MSL.
Variation magnétique : 14° East
Voir autres Aéroports à California

Données opérationnelles

Special qualification required
Heure actuelle UTC:
Heure actuelle locale:
Météo à : KSMO - Santa Monica Muni ( 4 km )
METAR: KSMO 262351Z 23008KT 10SM CLR 21/17 A2994 RMK AO2 SLP137 T02110167 10217 20200 56004
TAF: KSMO 262342Z 2700/2724 22008KT P6SM FEW012 BKN120 FM270500 24006KT P6SM OVC012 FM270900 VRB03KT P6SM OVC008 FM271600 VRB03KT P6SM BKN012 FM271800 24009KT P6SM SKC
Voir NOTAMs / SUP AIP / TFR affectant cet aéroport [VIEW]
Fréquences de communication: [VIEW]

Pistes:

Coordonnées de l'aéroport

Adresse: West Los Angeles United States

Vue satellite de 0CA2